Time;durP1;ratioP1;P1;durP2;ratioP2;P2;SDS_P1;SDS_P2;PMS_P1;PMS_P2;Temp;Humidity;BMP_temperature;BMP_pressure;BME280_temperature;BME280_humidity;BME280_pressure;Samples;Min_cycle;Max_cycle;Signal;HPM_P1;HPM_P2
2022/03/13 00:00:35;;;;;;;18.40;10.60;;;;;;;10.37;56.74;101411.59;5049591;28;20135;-82
2022/03/13 00:03:03;;;;;;;16.87;10.40;;;;;;;10.33;56.43;101407.56;5048885;28;20044;-82
2022/03/13 00:05:29;;;;;;;17.53;10.53;;;;;;;10.34;56.49;101404.66;5048705;28;20040;-82
2022/03/13 00:07:56;;;;;;;16.47;10.63;;;;;;;10.35;56.84;101417.22;5062311;28;20639;-78
2022/03/13 00:10:27;;;;;;;18.43;11.13;;;;;;;10.32;56.99;101409.44;5049691;28;20492;-83
2022/03/13 00:12:54;;;;;;;17.60;10.80;;;;;;;10.31;56.95;101411.31;5048347;28;20122;-81
2022/03/13 00:15:40;;;;;;;16.30;10.37;;;;;;;10.31;57.17;101411.31;5049441;28;20048;-80
2022/03/13 00:18:08;;;;;;;17.90;10.73;;;;;;;10.25;57.30;101414.81;5048620;28;20059;-83
2022/03/13 00:20:35;;;;;;;17.13;10.10;;;;;;;10.23;57.66;101419.56;5080576;27;20043;-83
2022/03/13 00:23:00;;;;;;;15.97;10.33;;;;;;;10.23;57.47;101406.03;5048512;28;20693;-81
2022/03/13 00:25:26;;;;;;;17.03;10.57;;;;;;;10.18;57.71;101403.06;5062405;28;20064;-82
2022/03/13 00:27:52;;;;;;;16.20;10.20;;;;;;;10.18;58.09;101400.38;5048598;28;20045;-84
2022/03/13 00:30:17;;;;;;;18.07;10.87;;;;;;;10.22;57.69;101407.06;5046721;28;20056;-80
2022/03/13 00:32:43;;;;;;;16.10;10.27;;;;;;;10.18;58.11;101405.78;5048553;28;20534;-83
2022/03/13 00:35:10;;;;;;;17.20;10.70;;;;;;;10.18;57.58;101408.50;5048673;28;20033;-80
2022/03/13 00:37:36;;;;;;;17.17;10.63;;;;;;;10.18;57.26;101405.78;5047476;28;20032;-81
2022/03/13 00:40:01;;;;;;;16.67;11.10;;;;;;;10.15;58.02;101406.19;5048363;28;20664;-83
2022/03/13 00:42:28;;;;;;;17.57;10.87;;;;;;;10.11;58.02;101396.78;5048644;28;20599;-82
2022/03/13 00:44:53;;;;;;;18.13;11.30;;;;;;;10.10;58.00;101381.56;5049006;28;20086;-81
2022/03/13 00:47:20;;;;;;;19.27;11.53;;;;;;;10.11;57.80;101385.94;5063299;28;20041;-82
2022/03/13 00:49:47;;;;;;;17.87;10.90;;;;;;;10.10;57.76;101382.41;5048324;28;20963;-81
2022/03/13 00:52:12;;;;;;;18.83;11.00;;;;;;;10.09;57.81;101382.56;5048708;28;20084;-83
2022/03/13 00:54:38;;;;;;;16.67;10.53;;;;;;;10.12;57.57;101365.97;5048012;28;20102;-80
2022/03/13 00:57:03;;;;;;;18.00;11.07;;;;;;;10.09;57.78;101379.88;5048091;28;20064;-82
2022/03/13 00:59:29;;;;;;;17.97;10.60;;;;;;;10.11;57.84;101372.41;5048344;28;20128;-82
2022/03/13 01:01:54;;;;;;;17.73;10.90;;;;;;;10.06;58.29;101374.84;5044905;28;20381;-81
2022/03/13 01:04:20;;;;;;;17.40;11.00;;;;;;;10.07;57.97;101374.66;5048030;28;20036;-82
2022/03/13 01:06:46;;;;;;;16.40;10.67;;;;;;;10.04;58.42;101372.34;5048267;28;20141;-83
2022/03/13 01:09:12;;;;;;;17.70;11.10;;;;;;;9.97;58.82;101377.69;5047702;28;20389;-83
2022/03/13 01:11:37;;;;;;;16.27;10.57;;;;;;;9.93;59.35;101368.28;5080519;27;20029;-83
2022/03/13 01:14:02;;;;;;;17.03;10.53;;;;;;;9.94;58.43;101372.69;5064226;28;20071;-84
2022/03/13 01:16:35;;;;;;;18.53;10.93;;;;;;;9.88;58.99;101364.50;5047424;28;20063;-82
2022/03/13 01:19:00;;;;;;;16.60;11.10;;;;;;;9.82;59.36;101357.16;5048129;28;20032;-81
2022/03/13 01:21:28;;;;;;;20.07;11.30;;;;;;;9.80;59.37;101365.47;5048082;28;20037;-81
2022/03/13 01:23:59;;;;;;;17.37;11.30;;;;;;;9.77;59.43;101360.44;5046426;28;20056;-82
2022/03/13 01:26:24;;;;;;;16.70;10.73;;;;;;;9.75;59.66;101357.94;5047899;28;20056;-82
2022/03/13 01:28:58;;;;;;;18.47;11.00;;;;;;;9.69;59.90;101353.28;5048295;28;20033;-82
2022/03/13 01:31:29;;;;;;;16.87;10.83;;;;;;;9.63;60.26;101352.19;5047459;28;20696;-81
2022/03/13 01:33:55;;;;;;;17.63;10.90;;;;;;;9.62;60.15;101342.41;5047554;28;20039;-81
2022/03/13 01:36:21;;;;;;;18.53;11.13;;;;;;;9.56;60.27;101337.78;5047698;28;20495;-82
2022/03/13 01:38:47;;;;;;;18.10;10.83;;;;;;;9.51;60.42;101326.69;5046475;28;20479;-81
2022/03/13 01:41:12;;;;;;;18.17;11.30;;;;;;;9.47;60.77;101328.09;5046839;28;20185;-81
2022/03/13 01:43:38;;;;;;;17.33;11.20;;;;;;;9.46;60.58;101332.69;5047457;28;20033;-81
2022/03/13 01:46:04;;;;;;;18.00;11.60;;;;;;;9.40;60.90;101329.91;5046418;28;20040;-81
2022/03/13 01:48:38;;;;;;;17.97;10.80;;;;;;;9.36;61.18;101328.63;5046502;28;21267;-81
2022/03/13 01:51:05;;;;;;;16.98;10.82;;;;;;;9.33;61.24;101327.13;5053395;28;20111;-81
2022/03/13 01:53:32;;;;;;;17.07;10.50;;;;;;;9.26;61.70;101318.97;5046631;28;20044;-81
2022/03/13 01:55:57;;;;;;;16.43;10.80;;;;;;;9.25;61.65;101314.56;5046789;28;20067;-81
2022/03/13 01:58:23;;;;;;;17.37;11.03;;;;;;;9.21;61.82;101302.47;5045909;28;20139;-81
2022/03/13 02:00:49;;;;;;;17.47;10.70;;;;;;;9.18;62.13;101320.91;5046859;28;20254;-81
2022/03/13 02:03:16;;;;;;;18.20;10.60;;;;;;;9.15;62.20;101319.44;5045637;28;20050;-81
2022/03/13 02:05:43;;;;;;;16.33;10.47;;;;;;;9.12;62.68;101309.88;5052913;28;20473;-81
2022/03/13 02:08:22;;;;;;;17.67;10.10;;;;;;;9.07;62.52;101303.34;5045831;28;20035;-81
2022/03/13 02:10:49;;;;;;;17.27;10.17;;;;;;;9.10;62.72;101308.38;5059515;28;20119;-81
2022/03/13 02:13:20;;;;;;;15.07;9.90;;;;;;;9.07;62.97;101300.63;5058875;28;20047;-81
2022/03/13 02:15:46;;;;;;;17.20;10.37;;;;;;;9.07;62.67;101300.63;5046340;28;20044;-81
2022/03/13 02:18:11;;;;;;;18.03;10.50;;;;;;;9.08;62.88;101307.72;5046252;28;20036;-82
2022/03/13 02:20:42;;;;;;;17.27;10.90;;;;;;;9.07;62.96;101303.34;5045987;28;20523;-81
2022/03/13 02:23:29;;;;;;;18.60;10.83;;;;;;;9.08;62.88;101302.31;5045789;28;20110;-82
2022/03/13 02:25:59;;;;;;;18.87;11.37;;;;;;;9.05;63.18;101297.28;5045862;28;20474;-81
2022/03/13 02:28:27;;;;;;;19.47;10.87;;;;;;;9.01;63.35;101296.00;5046048;28;20064;-81
2022/03/13 02:30:57;;;;;;;17.13;10.90;;;;;;;9.04;63.20;101292.91;5046147;28;20626;-81
2022/03/13 02:33:22;;;;;;;16.33;10.67;;;;;;;9.01;63.28;101290.59;5045378;28;20365;-81
2022/03/13 02:35:51;;;;;;;16.73;10.77;;;;;;;9.01;63.38;101290.59;5046673;28;20028;-81
2022/03/13 02:38:17;;;;;;;17.20;11.30;;;;;;;9.02;63.32;101298.50;5045509;28;20041;-81
2022/03/13 02:40:42;;;;;;;18.50;11.33;;;;;;;9.02;63.24;101289.56;5058552;28;20134;-81
2022/03/13 02:43:07;;;;;;;16.93;10.90;;;;;;;9.01;63.35;101296.00;5045668;28;20199;-82
2022/03/13 02:45:36;;;;;;;19.27;11.50;;;;;;;9.02;63.16;101294.97;5045732;28;20029;-81
2022/03/13 02:48:03;;;;;;;19.13;11.50;;;;;;;9.00;62.98;101292.44;5045622;28;20029;-81
2022/03/13 02:50:29;;;;;;;17.10;11.37;;;;;;;8.94;63.43;101294.03;5045442;28;20715;-81
2022/03/13 02:52:54;;;;;;;22.23;11.77;;;;;;;9.00;63.28;101288.91;5045607;28;20037;-81
2022/03/13 02:55:20;;;;;;;19.47;11.40;;;;;;;8.95;63.30;101282.22;5049353;28;20569;-81
2022/03/13 02:57:46;;;;;;;20.53;11.80;;;;;;;8.97;63.03;101283.91;5049024;28;20048;-81
2022/03/13 03:00:12;;;;;;;17.80;11.57;;;;;;;8.93;63.13;101284.28;5049805;28;20102;-81
2022/03/13 03:02:38;;;;;;;18.60;11.70;;;;;;;8.94;63.16;101283.22;5062204;28;20033;-80
2022/03/13 03:05:07;;;;;;;19.70;12.53;;;;;;;8.90;63.20;101279.25;5050151;28;20093;-80
2022/03/13 03:07:34;;;;;;;19.37;12.47;;;;;;;8.93;63.21;101283.44;5081476;27;20556;-81
2022/03/13 03:10:00;;;;;;;23.17;15.53;;;;;;;8.89;63.41;101284.84;5050120;28;20041;-81
2022/03/13 03:12:40;;;;;;;25.10;16.87;;;;;;;8.89;63.02;101282.97;5049847;28;20037;-81
2022/03/13 03:15:06;;;;;;;31.07;19.53;;;;;;;8.85;63.52;101276.25;5049299;28;20476;-82
2022/03/13 03:17:31;;;;;;;32.87;21.17;;;;;;;8.89;63.26;101284.84;5081659;27;20041;-81
2022/03/13 03:19:57;;;;;;;33.80;24.10;;;;;;;8.90;62.91;101279.25;5081043;27;20166;-81
2022/03/13 03:22:57;;;;;;;34.00;24.27;;;;;;;8.89;63.29;101280.25;5049742;28;20109;-81
2022/03/13 03:25:26;;;;;;;37.47;25.03;;;;;;;8.86;63.21;101263.59;5049286;28;20467;-81
2022/03/13 03:27:52;;;;;;;36.27;25.80;;;;;;;8.86;64.37;101271.72;5049276;28;20500;-81
2022/03/13 03:30:22;;;;;;;38.20;27.73;;;;;;;8.86;64.58;101280.66;5062605;28;20037;-81
2022/03/13 03:32:48;;;;;;;43.07;31.43;;;;;;;8.83;64.34;101278.34;5046363;28;20132;-80
2022/03/13 03:35:16;;;;;;;35.53;27.13;;;;;;;8.78;65.04;101278.91;5049427;28;20060;-80
2022/03/13 03:37:41;;;;;;;34.50;23.30;;;;;;;8.73;65.33;101267.84;5048734;28;20044;-80
2022/03/13 03:40:07;;;;;;;24.23;17.20;;;;;;;8.74;65.64;101271.34;5048843;28;20033;-81
2022/03/13 03:42:35;;;;;;;24.33;16.13;;;;;;;8.67;65.48;101275.84;5055118;28;20045;-81
2022/03/13 03:45:01;;;;;;;24.40;15.20;;;;;;;8.67;65.76;101271.28;5046206;28;20517;-80
2022/03/13 03:47:26;;;;;;;23.20;15.00;;;;;;;8.65;65.73;101275.19;5048994;28;20049;-80
2022/03/13 03:49:51;;;;;;;23.20;14.43;;;;;;;8.60;66.22;101270.34;5048863;28;20047;-80
2022/03/13 03:52:17;;;;;;;21.60;14.83;;;;;;;8.58;66.28;101258.91;5049848;28;20970;-81
2022/03/13 03:54:42;;;;;;;22.07;14.60;;;;;;;8.60;65.66;101273.88;5061500;28;20614;-81
2022/03/13 03:57:07;;;;;;;23.23;14.90;;;;;;;8.59;65.58;101269.53;5048664;28;20040;-81
2022/03/13 03:59:33;;;;;;;22.13;15.17;;;;;;;8.58;66.09;101270.56;5048479;28;20499;-80
2022/03/13 04:01:59;;;;;;;23.17;15.20;;;;;;;8.55;65.90;101264.69;5048090;28;20114;-81
2022/03/13 04:04:24;;;;;;;23.43;15.57;;;;;;;8.55;65.75;101268.22;5048753;28;20041;-81
2022/03/13 04:06:50;;;;;;;22.30;15.17;;;;;;;8.51;65.40;101266.91;5047925;28;20106;-80
2022/03/13 04:09:15;;;;;;;23.47;15.93;;;;;;;8.50;65.09;101267.09;5048694;28;20055;-81
2022/03/13 04:11:40;;;;;;;23.93;16.13;;;;;;;8.50;64.85;101267.97;5049081;28;20451;-81
2022/03/13 04:14:06;;;;;;;22.43;15.87;;;;;;;8.51;64.88;101266.09;5047584;28;20538;-81
2022/03/13 04:16:32;;;;;;;25.40;16.13;;;;;;;8.49;64.37;101260.88;5048821;28;20051;-82
2022/03/13 04:18:57;;;;;;;24.50;16.30;;;;;;;8.49;63.88;101260.88;5047522;28;20039;-81
2022/03/13 04:21:23;;;;;;;23.77;15.87;;;;;;;8.45;63.53;101262.28;5048229;28;20118;-80
2022/03/13 04:23:49;;;;;;;25.43;16.90;;;;;;;8.44;62.95;101258.72;5048663;28;20102;-82
2022/03/13 04:26:15;;;;;;;25.50;17.37;;;;;;;8.44;62.97;101253.31;5049032;28;20061;-80
2022/03/13 04:28:41;;;;;;;25.03;15.80;;;;;;;8.43;63.32;101266.97;5046152;28;20047;-81
2022/03/13 04:31:08;;;;;;;24.73;16.60;;;;;;;8.44;62.58;101268.66;5049312;28;20557;-80
2022/03/13 04:33:34;;;;;;;21.83;15.27;;;;;;;8.42;62.28;101268.84;5047734;28;20056;-81
2022/03/13 04:36:03;;;;;;;23.70;16.07;;;;;;;8.42;62.11;101265.31;5048627;28;20036;-81
2022/03/13 04:38:29;;;;;;;26.70;16.70;;;;;;;8.36;62.66;101257.97;5047536;28;20495;-82
2022/03/13 04:40:55;;;;;;;23.17;15.97;;;;;;;8.36;61.73;101256.09;5048461;28;20475;-81
2022/03/13 04:43:39;;;;;;;24.23;16.33;;;;;;;8.36;61.74;101261.47;5046783;28;20842;-82
2022/03/13 04:46:05;;;;;;;26.05;16.13;;;;;;;8.34;61.22;101262.72;5048401;28;20042;-78
2022/03/13 04:48:32;;;;;;;24.03;15.17;;;;;;;8.32;61.41;101270.97;5047800;28;20376;-83
2022/03/13 04:50:59;;;;;;;24.27;15.73;;;;;;;8.30;61.48;101269.53;5048163;28;20025;-79
2022/03/13 04:53:25;;;;;;;24.97;16.33;;;;;;;8.27;61.80;101276.13;5048303;28;20036;-81
2022/03/13 04:55:50;;;;;;;24.20;16.40;;;;;;;8.25;61.78;101272.75;5047617;28;20484;-80
2022/03/13 04:58:16;;;;;;;25.03;16.20;;;;;;;8.25;61.52;101272.75;5048203;28;20041;-81
2022/03/13 05:00:42;;;;;;;24.23;16.10;;;;;;;8.19;62.00;101270.81;5048246;28;20541;-81
2022/03/13 05:03:08;;;;;;;26.97;17.03;;;;;;;8.17;63.17;101279.06;5047319;28;20067;-81
2022/03/13 05:05:36;;;;;;;27.50;17.40;;;;;;;8.12;63.44;101281.53;5048426;28;20074;-83
2022/03/13 05:08:05;;;;;;;25.37;17.10;;;;;;;8.05;64.38;101281.41;5048319;28;20044;-81
2022/03/13 05:10:36;;;;;;;25.00;16.80;;;;;;;7.94;64.60;101266.50;5047164;28;20106;-82
2022/03/13 05:13:05;;;;;;;25.63;17.27;;;;;;;7.88;65.51;101267.22;5048249;28;20175;-81
2022/03/13 05:15:31;;;;;;;27.00;18.17;;;;;;;7.84;66.27;101267.81;5048171;28;20036;-79
2022/03/13 05:17:57;;;;;;;25.40;17.60;;;;;;;7.76;67.27;101260.63;5047540;28;20056;-80
2022/03/13 05:20:22;;;;;;;26.80;18.10;;;;;;;7.70;67.97;101253.28;5047941;28;20036;-81
2022/03/13 05:22:47;;;;;;;26.27;18.77;;;;;;;7.63;68.04;101258.56;5047836;28;20174;-80
2022/03/13 05:25:13;;;;;;;27.70;18.70;;;;;;;7.58;68.44;101253.69;5047526;28;20033;-81
2022/03/13 05:27:39;;;;;;;28.90;18.00;;;;;;;7.55;68.18;101255.94;5047888;28;20415;-80
2022/03/13 05:30:05;;;;;;;27.47;18.27;;;;;;;7.48;68.35;101250.41;5047663;28;20069;-81
2022/03/13 05:32:30;;;;;;;28.03;18.40;;;;;;;7.46;68.43;101249.75;5046466;28;20664;-79
2022/03/13 05:34:57;;;;;;;28.37;18.17;;;;;;;7.46;68.07;101254.31;5049690;28;20069;-82
2022/03/13 05:37:23;;;;;;;28.03;18.67;;;;;;;7.42;68.02;101246.59;5079608;27;20075;-81
2022/03/13 05:39:49;;;;;;;28.13;18.20;;;;;;;7.42;67.84;101253.81;5078816;27;20044;-79
2022/03/13 05:42:14;;;;;;;26.33;17.93;;;;;;;7.38;68.50;101258.72;5061396;28;20046;-80
2022/03/13 05:44:40;;;;;;;27.30;18.10;;;;;;;7.34;68.24;101254.72;5062658;28;20480;-80
2022/03/13 05:47:05;;;;;;;27.43;17.27;;;;;;;7.37;68.22;101262.47;5046963;28;20039;-79
2022/03/13 05:49:31;;;;;;;25.03;17.53;;;;;;;7.33;67.62;101258.47;5047616;28;20456;-81
2022/03/13 05:51:56;;;;;;;26.40;18.03;;;;;;;7.34;67.61;101257.41;5047263;28;20411;-80
2022/03/13 05:54:21;;;;;;;26.27;17.63;;;;;;;7.33;67.89;101260.28;5046687;28;20025;-79
2022/03/13 05:56:47;;;;;;;26.73;18.07;;;;;;;7.29;68.00;101264.38;5055312;28;20048;-81
2022/03/13 05:59:12;;;;;;;26.57;17.23;;;;;;;7.33;67.73;101260.28;5044178;28;20044;-81
2022/03/13 06:01:38;;;;;;;31.23;18.13;;;;;;;7.31;67.66;101268.56;5028588;28;20094;-81
2022/03/13 06:04:05;;;;;;;23.33;16.73;;;;;;;7.30;67.36;101261.50;5046674;28;20041;-80
2022/03/13 06:06:32;;;;;;;24.53;16.40;;;;;;;7.34;66.90;101267.38;5047136;28;20037;-79
2022/03/13 06:08:57;;;;;;;26.67;17.00;;;;;;;7.34;67.05;101272.75;5028806;28;20045;-81
2022/03/13 06:11:22;;;;;;;24.40;16.53;;;;;;;7.36;66.51;101262.66;5047151;28;20535;-81
2022/03/13 06:13:48;;;;;;;24.13;16.43;;;;;;;7.35;66.27;101263.66;5046171;28;20805;-81
2022/03/13 06:16:14;;;;;;;24.63;16.50;;;;;;;7.34;66.25;101261.97;5043613;28;20071;-80
2022/03/13 06:18:40;;;;;;;25.37;16.67;;;;;;;7.34;66.35;101260.13;5046966;28;20041;-81
2022/03/13 06:21:06;;;;;;;26.93;16.53;;;;;;;7.35;66.11;101275.28;5048252;28;20404;-81
2022/03/13 06:23:33;;;;;;;23.87;15.87;;;;;;;7.38;65.42;101271.38;5046356;28;20150;-81
2022/03/13 06:26:00;;;;;;;22.63;15.70;;;;;;;7.38;64.95;101274.09;5079242;28;20049;-80
2022/03/13 06:28:26;;;;;;;23.87;16.17;;;;;;;7.36;65.35;101260.78;5046154;28;20406;-80
2022/03/13 06:30:55;;;;;;;24.10;16.37;;;;;;;7.43;64.93;101271.69;5046359;28;20040;-81
2022/03/13 06:33:21;;;;;;;25.37;15.87;;;;;;;7.42;65.34;101267.31;5046740;28;20524;-81
2022/03/13 06:35:46;;;;;;;25.93;17.23;;;;;;;7.44;65.03;101273.38;5048278;28;20048;-80
2022/03/13 06:38:12;;;;;;;24.23;15.90;;;;;;;7.45;65.33;101264.25;5046795;28;20522;-82
2022/03/13 06:40:37;;;;;;;25.40;16.17;;;;;;;7.44;65.41;101270.69;5047008;28;20101;-81
2022/03/13 06:43:02;;;;;;;25.17;16.40;;;;;;;7.46;64.89;101271.31;5061624;28;20166;-81
2022/03/13 06:45:28;;;;;;;24.40;16.13;;;;;;;7.49;65.38;101267.44;5078540;28;20029;-81
2022/03/13 06:47:53;;;;;;;24.10;16.70;;;;;;;7.49;65.34;101259.34;5047199;28;20427;-81
2022/03/13 06:50:23;;;;;;;24.30;16.33;;;;;;;7.49;65.20;101270.13;5046032;28;20493;-82
2022/03/13 06:52:49;;;;;;;24.37;16.13;;;;;;;7.52;65.04;101273.31;5046865;28;20032;-81
2022/03/13 06:55:16;;;;;;;23.97;16.13;;;;;;;7.54;65.23;101267.72;5046520;28;22077;-81
2022/03/13 06:57:43;;;;;;;24.17;16.37;;;;;;;7.53;65.69;101277.66;5046737;28;20043;-81
2022/03/13 07:00:09;;;;;;;26.60;16.13;;;;;;;7.56;65.74;101274.63;5046552;28;20043;-81
2022/03/13 07:02:35;;;;;;;24.87;16.13;;;;;;;7.57;65.46;101264.66;5059240;28;20051;-81
2022/03/13 07:05:01;;;;;;;25.67;16.70;;;;;;;7.60;65.89;101275.94;5046100;28;20041;-81
2022/03/13 07:07:26;;;;;;;25.37;16.50;;;;;;;7.63;65.32;101281.97;5046520;28;20036;-82
2022/03/13 07:09:52;;;;;;;24.23;16.20;;;;;;;7.67;65.47;101275.19;5060326;28;20048;-81
2022/03/13 07:12:18;;;;;;;24.27;15.80;;;;;;;7.67;65.42;101272.50;5046310;28;20036;-82
2022/03/13 07:14:48;;;;;;;26.87;16.83;;;;;;;7.70;64.46;101261.34;5045911;28;20028;-81
2022/03/13 07:17:14;;;;;;;25.33;16.23;;;;;;;7.75;64.61;101265.19;5044755;28;20533;-81
2022/03/13 07:19:43;;;;;;;25.97;16.70;;;;;;;7.78;64.28;101267.50;5053491;28;20484;-80
2022/03/13 07:22:12;;;;;;;22.93;15.57;;;;;;;7.81;64.14;101265.47;5046093;28;20127;-80
2022/03/13 07:24:38;;;;;;;23.47;15.70;;;;;;;7.84;64.17;101271.31;5045550;28;20388;-83
2022/03/13 07:27:04;;;;;;;25.10;16.10;;;;;;;7.89;64.15;101268.09;5045841;28;20042;-84
2022/03/13 07:29:29;;;;;;;24.43;16.30;;;;;;;7.93;64.23;101261.31;5046045;28;20052;-83
2022/03/13 07:31:56;;;;;;;25.60;16.13;;;;;;;8.00;63.64;101266.81;5042999;28;20037;-80
2022/03/13 07:34:23;;;;;;;26.33;16.93;;;;;;;8.04;63.94;101278.91;5059397;28;20041;-81
2022/03/13 07:36:49;;;;;;;26.13;18.00;;;;;;;8.09;64.17;101276.47;5046523;28;20377;-82
2022/03/13 07:39:15;;;;;;;25.90;16.00;;;;;;;8.11;64.12;101275.25;5045841;28;20048;-80
2022/03/13 07:41:40;;;;;;;26.37;17.77;;;;;;;8.13;64.31;101266.97;5061558;28;20067;-81
2022/03/13 07:44:06;;;;;;;23.97;16.97;;;;;;;8.18;65.40;101264.56;5050099;28;20401;-81
2022/03/13 07:46:31;;;;;;;24.90;16.60;;;;;;;8.18;64.48;101264.56;5056808;28;20051;-81
2022/03/13 07:48:56;;;;;;;24.37;15.57;;;;;;;8.14;64.04;101241.66;5049693;28;20044;-82
2022/03/13 07:51:22;;;;;;;24.10;17.73;;;;;;;8.24;64.38;101252.19;5047685;28;20036;-80
2022/03/13 07:53:47;;;;;;;24.00;16.30;;;;;;;8.27;64.35;101263.47;5079787;27;20033;-79
2022/03/13 07:56:13;;;;;;;26.73;19.17;;;;;;;8.28;64.35;101265.13;5045456;28;20123;-82
2022/03/13 07:58:38;;;;;;;24.70;16.20;;;;;;;8.24;63.22;101271.94;5047435;28;20064;-81
2022/03/13 08:01:03;;;;;;;22.67;16.13;;;;;;;8.21;63.84;101269.59;5041800;28;20045;-81
2022/03/13 08:03:34;;;;;;;24.37;15.97;;;;;;;8.14;62.45;101259.75;5045828;28;20049;-82
2022/03/13 08:06:00;;;;;;;24.47;16.10;;;;;;;8.13;62.29;101266.97;5043549;28;20040;-81
2022/03/13 08:08:25;;;;;;;25.43;16.93;;;;;;;8.10;62.76;101248.47;5045068;28;20046;-80
2022/03/13 08:10:50;;;;;;;23.93;16.20;;;;;;;8.15;63.30;101264.94;5044920;28;20623;-82
2022/03/13 08:13:16;;;;;;;24.50;18.47;;;;;;;8.17;62.83;101267.47;5044663;28;20040;-81
2022/03/13 08:15:41;;;;;;;24.27;16.17;;;;;;;8.15;61.87;101264.13;5042556;28;20044;-81
2022/03/13 08:18:09;;;;;;;24.83;17.67;;;;;;;8.13;62.05;101256.19;5045314;28;20044;-82
2022/03/13 08:20:35;;;;;;;23.10;15.40;;;;;;;8.08;61.28;101243.25;5044894;28;20036;-81
2022/03/13 08:23:00;;;;;;;25.33;15.60;;;;;;;8.10;60.57;101246.63;5044455;28;20062;-80
2022/03/13 08:25:26;;;;;;;22.03;15.03;;;;;;;8.21;60.12;101263.34;5043910;28;20036;-80
2022/03/13 08:27:51;;;;;;;22.53;14.97;;;;;;;8.27;60.70;101258.06;5043022;28;20703;-80
2022/03/13 08:30:17;;;;;;;25.77;15.43;;;;;;;8.37;60.20;101262.34;5044799;28;21469;-82
2022/03/13 08:32:43;;;;;;;28.03;23.03;;;;;;;8.41;59.48;101256.38;5043530;28;20446;-81
2022/03/13 08:35:09;;;;;;;26.07;20.90;;;;;;;8.50;58.33;101261.69;5044346;28;20036;-79
2022/03/13 08:37:38;;;;;;;25.80;20.53;;;;;;;8.52;57.92;101255.09;5044073;28;20036;-79
2022/03/13 08:40:05;;;;;;;25.23;17.10;;;;;;;8.63;58.19;101258.34;5043997;28;20043;-80
2022/03/13 08:42:32;;;;;;;25.80;16.63;;;;;;;8.70;57.16;101257.38;5043522;28;20042;-82
2022/03/13 08:44:58;;;;;;;24.70;15.30;;;;;;;8.78;57.05;101260.00;5043921;28;20044;-81
2022/03/13 08:47:23;;;;;;;24.30;15.67;;;;;;;8.85;56.36;101260.03;5044090;28;20082;-79
2022/03/13 08:49:50;;;;;;;23.80;14.73;;;;;;;8.94;57.08;101263.50;5044305;28;20268;-80
2022/03/13 08:52:16;;;;;;;23.70;15.50;;;;;;;9.02;56.18;101262.53;5043349;28;20120;-80
2022/03/13 08:54:41;;;;;;;23.43;15.17;;;;;;;9.08;55.65;101256.34;5076068;27;21005;-82
2022/03/13 08:57:07;;;;;;;25.03;15.17;;;;;;;9.20;56.11;101252.13;5044431;28;20037;-81
2022/03/13 08:59:36;;;;;;;22.60;15.07;;;;;;;9.31;55.48;101258.06;5042620;28;20629;-81
2022/03/13 09:02:02;;;;;;;25.70;15.27;;;;;;;9.39;55.92;101257.91;5043845;28;20043;-81
2022/03/13 09:04:27;;;;;;;23.27;15.17;;;;;;;9.49;54.89;101249.47;5057468;28;20032;-81
2022/03/13 09:06:54;;;;;;;24.40;15.50;;;;;;;9.65;54.75;101246.47;5043006;28;20033;-81
2022/03/13 09:09:20;;;;;;;24.03;17.63;;;;;;;9.71;53.47;101242.16;5044281;28;20063;-81
2022/03/13 09:11:47;;;;;;;27.17;20.03;;;;;;;9.80;53.63;101246.38;5043864;28;20111;-81
2022/03/13 09:14:13;;;;;;;29.27;21.03;;;;;;;10.03;53.75;101246.13;5043813;28;20029;-83
2022/03/13 09:16:40;;;;;;;28.70;21.60;;;;;;;10.16;53.15;101248.09;5042878;28;20040;-82
2022/03/13 09:19:05;;;;;;;28.10;20.80;;;;;;;10.34;53.36;101247.56;5043293;28;20162;-81
2022/03/13 09:21:33;;;;;;;27.47;21.93;;;;;;;10.48;52.09;101243.06;5043699;28;20033;-80
2022/03/13 09:24:00;;;;;;;26.57;22.30;;;;;;;10.60;51.59;101246.06;5058670;28;20056;-79
2022/03/13 09:26:26;;;;;;;30.23;22.43;;;;;;;10.81;51.23;101248.63;5042702;28;20032;-81
2022/03/13 09:28:51;;;;;;;24.77;19.73;;;;;;;11.09;50.11;101246.84;5043105;28;20060;-76
2022/03/13 09:31:17;;;;;;;27.20;19.00;;;;;;;11.42;49.70;101243.31;5043318;28;20462;-82
2022/03/13 09:33:42;;;;;;;23.97;17.07;;;;;;;11.75;49.40;101239.75;5042789;28;20034;-82
2022/03/13 09:36:08;;;;;;;24.63;16.93;;;;;;;11.90;48.45;101237.69;5043294;28;20040;-82
2022/03/13 09:38:34;;;;;;;22.17;15.80;;;;;;;12.04;48.02;101229.53;5042759;28;20516;-81
2022/03/13 09:40:59;;;;;;;24.90;17.10;;;;;;;12.24;48.93;101233.03;5041270;28;20047;-83
2022/03/13 09:43:24;;;;;;;26.00;15.77;;;;;;;12.65;47.86;101236.44;5071456;28;20119;-80
2022/03/13 09:45:50;;;;;;;22.90;16.07;;;;;;;12.72;46.96;101241.84;5074060;27;20405;-82
2022/03/13 09:48:18;;;;;;;22.77;15.50;;;;;;;12.97;46.88;101229.16;5043492;28;20043;-82
2022/03/13 09:50:45;;;;;;;22.77;15.50;;;;;;;13.09;47.16;101236.63;5042060;28;20033;-81
2022/03/13 09:53:11;;;;;;;22.77;16.37;;;;;;;13.42;46.66;101241.88;5045437;28;20037;-83
2022/03/13 09:55:37;;;;;;;23.50;16.30;;;;;;;13.62;45.72;101240.88;5045424;28;20071;-80
2022/03/13 09:58:04;;;;;;;22.80;15.83;;;;;;;13.74;45.52;101243.72;5045497;28;20044;-83
2022/03/13 10:00:31;;;;;;;23.00;16.13;;;;;;;13.93;45.33;101250.84;5044779;28;20032;-84
2022/03/13 10:02:56;;;;;;;22.37;16.20;;;;;;;14.17;45.55;101240.97;5044873;28;20033;-82
2022/03/13 10:05:24;;;;;;;22.03;15.43;;;;;;;14.21;44.90;101237.78;5046456;28;20136;-83
2022/03/13 10:07:57;;;;;;;22.03;15.43;;;;;;;14.32;44.41;101245.19;5045455;28;20052;-81
2022/03/13 10:10:24;;;;;;;22.70;15.40;;;;;;;14.46;43.96;101235.00;5044834;28;20068;-83
2022/03/13 10:12:50;;;;;;;22.73;15.17;;;;;;;14.54;43.94;101237.41;5075857;27;20072;-81
2022/03/13 10:15:16;;;;;;;21.67;15.17;;;;;;;14.56;43.95;101234.44;5058643;28;20155;-82
2022/03/13 10:17:42;;;;;;;20.40;14.90;;;;;;;14.46;44.90;101229.53;5046142;28;20035;-83
2022/03/13 10:20:23;;;;;;;19.43;14.13;;;;;;;14.68;44.28;101219.00;5069470;28;20044;-82
2022/03/13 10:23:03;;;;;;;20.90;15.10;;;;;;;14.63;44.91;101229.78;5045584;28;20466;-83
2022/03/13 10:25:35;;;;;;;20.40;14.57;;;;;;;14.93;44.01;101228.94;5046543;28;20040;-82
2022/03/13 10:28:24;;;;;;;21.53;14.50;;;;;;;15.01;43.63;101209.53;5044443;28;20040;-82
2022/03/13 10:30:59;;;;;;;19.50;13.27;;;;;;;15.02;43.31;101217.47;5044980;28;20523;-78
2022/03/13 10:33:28;;;;;;;;;;;;;;;15.41;43.65;101208.06;5044904;28;20460;-84
2022/03/13 10:36:10;;;;;;;19.60;12.97;;;;;;;15.09;43.37;101213.81;5045491;28;19924;-80
2022/03/13 10:38:37;;;;;;;19.70;13.63;;;;;;;15.30;43.51;101205.09;5046285;28;20072;-80
2022/03/13 10:41:08;;;;;;;18.93;12.73;;;;;;;15.47;42.84;101191.56;5044526;28;20036;-81
2022/03/13 10:43:39;;;;;;;19.07;12.13;;;;;;;15.60;42.36;101190.53;5046108;28;20109;-83
2022/03/13 10:46:05;;;;;;;20.10;12.43;;;;;;;15.50;42.36;101206.66;5047026;28;20028;-83
2022/03/13 10:48:56;;;;;;;19.80;12.73;;;;;;;15.58;42.03;101192.66;5039484;27;2103450;-83
2022/03/13 10:51:45;;;;;;;17.93;12.57;;;;;;;15.87;42.53;101187.34;5110957;28;20039;-83
2022/03/13 10:54:26;;;;;;;17.00;12.43;;;;;;;16.13;41.77;101198.81;5111629;28;20673;-82
2022/03/13 10:57:10;;;;;;;19.13;13.10;;;;;;;16.15;41.74;101197.50;5110729;28;20043;-82
2022/03/13 10:59:37;;;;;;;18.15;13.15;;;;;;;16.11;41.05;101187.31;5111189;28;20027;-82
2022/03/13 11:02:22;;;;;;;19.43;13.47;;;;;;;16.30;40.76;101196.19;5110431;28;20037;-80
2022/03/13 11:04:49;;;;;;;19.07;13.43;;;;;;;16.36;42.24;101201.53;5111487;28;20040;-83
2022/03/13 11:07:15;;;;;;;18.07;13.20;;;;;;;16.37;40.47;101194.13;5092299;28;20503;-81
2022/03/13 11:09:41;;;;;;;18.63;12.90;;;;;;;16.61;41.32;101183.94;5111113;28;20042;-81
2022/03/13 11:12:09;;;;;;;20.13;13.70;;;;;;;16.74;40.48;101182.00;5110399;28;20502;-83
2022/03/13 11:14:35;;;;;;;18.17;12.60;;;;;;;16.58;40.28;101178.97;5092736;28;20144;-78